Alessandro F — IBVQ — position and weather

sailwx.info

Track history (hours):
 
Tides and Currents Weather Stations Pressure Air Temp Water Temp Dewpoint Dewpoint Depression Visibility Wind Speed Wind Dir Waves Ship Positions

Alessandro F

Last reported at 2017-Apr-20 13:43 UTC. Time now 2017-Apr-26 23:38 UTC.
Position N 31°59' E 034°12'.

Length 100 m; draft 5.2 m.

Type: Ship. MMSI: 247046400.

Date/timePositionNaut miles runAvg speedWind from/ knotsBaromVisibWave heightAir tempDewpointWater temp
2017-Apr-20 13:43N 31°59' E 034°12'314.8
2017-Apr-20 13:30N 32°00' E 034°09'714.5
2017-Apr-20 13:00N 32°03' E 034°01'714.1
2017-Apr-20 12:30N 32°06' E 033°54'1413.7
2017-Apr-20 11:31N 32°13' E 033°40'0 3.5
2017-Apr-20 11:30N 32°13' E 033°40'1 0.4
2017-Apr-20 10:08N 32°13' E 033°41'0 0.4
2017-Apr-20 10:00N 32°13' E 033°41'0 0.4
2017-Apr-20 09:14N 32°13' E 033°41'0 0.5
2017-Apr-20 08:47N 32°13' E 033°41'1 4.1
2017-Apr-20 08:30N 32°13' E 033°40'49213.4
2017-Apr-18 19:50N 37°25' E 025°55'1713.6
2017-Apr-18 18:33N 37°40' E 025°46'413.5
2017-Apr-18 18:16N 37°44' E 025°44'513.6
2017-Apr-18 17:52N 37°49' E 025°41'  
2017-Apr-15 13:51N 37°08' E 015°48'34 2.7
2017-Apr-15 01:21N 36°44' E 015°18'2310.2
2017-Apr-14 23:05N 36°38' E 014°50'112.2
2017-Apr-14 23:00N 36°38' E 014°49'912.7
2017-Apr-14 22:16N 36°40' E 014°37'1312.4
2017-Apr-14 21:15N 36°44' E 014°22'2511.9
2017-Apr-14 19:10N 36°56' E 013°55'211.8
2017-Apr-14 18:59N 36°57' E 013°53'712.0
2017-Apr-14 18:23N 36°60' E 013°44'512.4
2017-Apr-14 17:57N 37°02' E 013°39'612.3
2017-Apr-14 17:30N 37°05' E 013°32'712.0
2017-Apr-14 16:57N 37°08' E 013°25'511.8
2017-Apr-14 16:30N 37°10' E 013°19'611.8
2017-Apr-14 16:00N 37°13' E 013°12'21011.9
2017-Apr-13 22:23N 38°32' E 009°06'1911.3
2017-Apr-13 20:43N 38°39' E 008°44'311.4
2017-Apr-13 20:29N 38°40' E 008°40'27212.9
2017-Apr-12 23:22N 40°25' E 003°15'512.9
2017-Apr-12 23:00N 40°28' E 003°10'612.7
2017-Apr-12 22:30N 40°30' E 003°03'612.5
2017-Apr-12 22:00N 40°33' E 002°55'712.6
2017-Apr-12 21:29N 40°35' E 002°47'612.9
2017-Apr-12 21:00N 40°37' E 002°39'712.9
2017-Apr-12 20:30N 40°39' E 002°31'612.9
2017-Apr-12 20:00N 40°42' E 002°23'612.9
2017-Apr-12 19:30N 40°45' E 002°16'712.9
2017-Apr-12 19:00N 40°47' E 002°08'612.8
2017-Apr-12 18:30N 40°49' E 001°60'712.5
2017-Apr-12 17:55N 40°52' E 001°51'512.4
2017-Apr-12 17:29N 40°54' E 001°44'612.4
2017-Apr-12 17:00N 40°56' E 001°37'612.5
2017-Apr-12 16:30N 40°59' E 001°29'1411.8
2017-Apr-12 15:19N 41°05' E 001°13'4 0.1
2017-Apr-11 07:44N 41°05' E 001°18'210.0
2017-Apr-11 07:30N 41°03' E 001°20'612.4
2017-Apr-11 07:00N 41°03' E 001°29'612.9
2017-Apr-11 06:30N 41°04' E 001°37'612.9
2017-Apr-11 06:00N 41°04' E 001°46'612.8
2017-Apr-11 05:30N 41°05' E 001°54'612.7
2017-Apr-11 05:00N 41°06' E 002°02'612.6
2017-Apr-11 04:30N 41°06' E 002°11'712.8
2017-Apr-11 04:00N 41°10' E 002°18'613.1
2017-Apr-11 03:30N 41°14' E 002°25'713.0
2017-Apr-11 03:00N 41°18' E 002°32'712.9
2017-Apr-11 02:29N 41°22' E 002°38'612.8
2017-Apr-11 02:00N 41°26' E 002°45'612.7
2017-Apr-11 01:30N 41°30' E 002°52'6012.8
2017-Apr-10 20:50N 41°59' E 004°01'412.5
2017-Apr-10 20:30N 42°01' E 004°06'612.4
2017-Apr-10 20:00N 42°04' E 004°14'3112.2
2017-Apr-10 17:25N 42°16' E 004°53'811.9
2017-Apr-10 16:43N 42°19' E 005°03'1612.1
2017-Apr-10 15:26N 42°25' E 005°23'  
Track history (hours):
 
Tides and Currents Weather Stations Pressure Air Temp Water Temp Dewpoint Dewpoint Depression Visibility Wind Speed Wind Dir Waves Ship Positions

Alessandro F

Last reported at 2017-Apr-20 13:43 UTC. Time now 2017-Apr-26 23:38 UTC.
Position N 31°59' E 034°12'.

Length 100 m; draft 5.2 m.

Type: Ship. MMSI: 247046400.

Date/timePositionNaut miles runAvg speedWind from/ knotsBaromVisibWave heightAir tempDewpointWater temp
2017-Apr-20 13:43N 31°59' E 034°12'314.8
2017-Apr-20 13:30N 32°00' E 034°09'714.5
2017-Apr-20 13:00N 32°03' E 034°01'714.1
2017-Apr-20 12:30N 32°06' E 033°54'1413.7
2017-Apr-20 11:31N 32°13' E 033°40'0 3.5
2017-Apr-20 11:30N 32°13' E 033°40'1 0.4
2017-Apr-20 10:08N 32°13' E 033°41'0 0.4
2017-Apr-20 10:00N 32°13' E 033°41'0 0.4
2017-Apr-20 09:14N 32°13' E 033°41'0 0.5
2017-Apr-20 08:47N 32°13' E 033°41'1 4.1
2017-Apr-20 08:30N 32°13' E 033°40'49213.4
2017-Apr-18 19:50N 37°25' E 025°55'1713.6
2017-Apr-18 18:33N 37°40' E 025°46'413.5
2017-Apr-18 18:16N 37°44' E 025°44'513.6
2017-Apr-18 17:52N 37°49' E 025°41'  
2017-Apr-15 13:51N 37°08' E 015°48'34 2.7
2017-Apr-15 01:21N 36°44' E 015°18'2310.2
2017-Apr-14 23:05N 36°38' E 014°50'112.2
2017-Apr-14 23:00N 36°38' E 014°49'912.7
2017-Apr-14 22:16N 36°40' E 014°37'1312.4
2017-Apr-14 21:15N 36°44' E 014°22'2511.9
2017-Apr-14 19:10N 36°56' E 013°55'211.8
2017-Apr-14 18:59N 36°57' E 013°53'712.0
2017-Apr-14 18:23N 36°60' E 013°44'512.4
2017-Apr-14 17:57N 37°02' E 013°39'612.3
2017-Apr-14 17:30N 37°05' E 013°32'712.0
2017-Apr-14 16:57N 37°08' E 013°25'511.8
2017-Apr-14 16:30N 37°10' E 013°19'611.8
2017-Apr-14 16:00N 37°13' E 013°12'21011.9
2017-Apr-13 22:23N 38°32' E 009°06'1911.3
2017-Apr-13 20:43N 38°39' E 008°44'311.4
2017-Apr-13 20:29N 38°40' E 008°40'27212.9
2017-Apr-12 23:22N 40°25' E 003°15'512.9
2017-Apr-12 23:00N 40°28' E 003°10'612.7
2017-Apr-12 22:30N 40°30' E 003°03'612.5
2017-Apr-12 22:00N 40°33' E 002°55'712.6
2017-Apr-12 21:29N 40°35' E 002°47'612.9
2017-Apr-12 21:00N 40°37' E 002°39'712.9
2017-Apr-12 20:30N 40°39' E 002°31'612.9
2017-Apr-12 20:00N 40°42' E 002°23'612.9
2017-Apr-12 19:30N 40°45' E 002°16'712.9
2017-Apr-12 19:00N 40°47' E 002°08'612.8
2017-Apr-12 18:30N 40°49' E 001°60'712.5
2017-Apr-12 17:55N 40°52' E 001°51'512.4
2017-Apr-12 17:29N 40°54' E 001°44'612.4
2017-Apr-12 17:00N 40°56' E 001°37'612.5
2017-Apr-12 16:30N 40°59' E 001°29'1411.8
2017-Apr-12 15:19N 41°05' E 001°13'4 0.1
2017-Apr-11 07:44N 41°05' E 001°18'210.0
2017-Apr-11 07:30N 41°03' E 001°20'612.4
2017-Apr-11 07:00N 41°03' E 001°29'612.9
2017-Apr-11 06:30N 41°04' E 001°37'612.9
2017-Apr-11 06:00N 41°04' E 001°46'612.8
2017-Apr-11 05:30N 41°05' E 001°54'612.7
2017-Apr-11 05:00N 41°06' E 002°02'612.6
2017-Apr-11 04:30N 41°06' E 002°11'712.8
2017-Apr-11 04:00N 41°10' E 002°18'613.1
2017-Apr-11 03:30N 41°14' E 002°25'713.0
2017-Apr-11 03:00N 41°18' E 002°32'712.9
2017-Apr-11 02:29N 41°22' E 002°38'612.8
2017-Apr-11 02:00N 41°26' E 002°45'612.7
2017-Apr-11 01:30N 41°30' E 002°52'6012.8
2017-Apr-10 20:50N 41°59' E 004°01'412.5
2017-Apr-10 20:30N 42°01' E 004°06'612.4
2017-Apr-10 20:00N 42°04' E 004°14'3112.2
2017-Apr-10 17:25N 42°16' E 004°53'811.9
2017-Apr-10 16:43N 42°19' E 005°03'1612.1
2017-Apr-10 15:26N 42°25' E 005°23'  

Dump ship's entire track history